createdAt,value
2018-02-14T00:01:35.315Z,8.63
2018-02-14T00:04:04.170Z,8.18
2018-02-14T00:06:32.711Z,7.05
2018-02-14T00:09:01.449Z,8.80
2018-02-14T00:11:30.196Z,8.80
2018-02-14T00:13:58.708Z,7.47
2018-02-14T00:16:27.728Z,7.60
2018-02-14T00:18:56.521Z,8.90
2018-02-14T00:21:24.937Z,7.90
2018-02-14T00:23:53.365Z,7.50
2018-02-14T00:26:22.131Z,8.40
2018-02-14T00:28:50.560Z,8.45
2018-02-14T00:31:18.986Z,10.35
2018-02-14T00:33:48.338Z,9.23
2018-02-14T00:36:16.763Z,10.05
2018-02-14T00:38:45.193Z,8.60
2018-02-14T00:41:13.837Z,8.45
2018-02-14T00:43:42.287Z,9.20
2018-02-14T00:46:10.730Z,8.82
2018-02-14T00:48:39.722Z,7.22
2018-02-14T00:51:08.193Z,7.22
2018-02-14T00:53:37.217Z,15.15
2018-02-14T00:56:06.763Z,8.48
2018-02-14T00:58:35.245Z,9.43
2018-02-14T01:01:03.793Z,7.22
2018-02-14T01:03:32.480Z,7.12
2018-02-14T01:06:00.989Z,7.47
2018-02-14T01:08:29.828Z,7.97
2018-02-14T01:10:58.461Z,6.97
2018-02-14T01:13:26.872Z,9.65
2018-02-14T01:15:55.265Z,7.55
2018-02-14T01:18:24.075Z,7.47
2018-02-14T01:20:52.536Z,7.00
2018-02-14T01:23:20.954Z,8.73
2018-02-14T01:25:50.261Z,7.78
2018-02-14T01:28:18.697Z,8.75
2018-02-14T01:30:47.113Z,6.95
2018-02-14T01:33:16.040Z,7.45
2018-02-14T01:35:44.462Z,7.97
2018-02-14T01:38:12.881Z,10.35
2018-02-14T01:40:48.256Z,12.80
2018-02-14T01:43:16.688Z,11.98
2018-02-14T01:45:45.113Z,9.88
2018-02-14T01:48:13.578Z,8.75
2018-02-14T01:50:41.993Z,8.23
2018-02-14T01:53:10.442Z,11.68
2018-02-14T01:55:39.255Z,11.12
2018-02-14T01:58:07.677Z,9.60
2018-02-14T02:00:36.307Z,8.70
2018-02-14T02:03:05.694Z,8.40
2018-02-14T02:05:34.145Z,8.43
2018-02-14T02:08:02.628Z,7.90
2018-02-14T02:10:31.555Z,8.02
2018-02-14T02:13:00.036Z,8.38
2018-02-14T02:15:28.797Z,7.68
2018-02-14T02:17:57.361Z,8.48
2018-02-14T02:20:25.805Z,7.28
2018-02-14T02:22:54.294Z,7.62
2018-02-14T02:25:22.816Z,8.35
2018-02-14T02:27:51.507Z,7.25
2018-02-14T02:30:20.121Z,7.20
2018-02-14T02:32:49.343Z,7.55
2018-02-14T02:35:18.760Z,8.25
2018-02-14T02:37:49.051Z,7.75
2018-02-14T02:40:29.218Z,7.75
2018-02-14T02:42:57.664Z,8.27
2018-02-14T02:45:30.068Z,8.63
2018-02-14T02:47:58.491Z,7.35
2018-02-14T02:50:26.930Z,8.90
2018-02-14T02:52:55.750Z,8.65
2018-02-14T02:55:24.166Z,8.43
2018-02-14T02:57:52.599Z,8.20
2018-02-14T03:00:21.059Z,8.52
2018-02-14T03:02:49.501Z,8.30
2018-02-14T03:05:17.937Z,7.55
2018-02-14T03:07:46.802Z,7.55
2018-02-14T03:10:15.251Z,8.00
2018-02-14T03:12:43.696Z,6.65
2018-02-14T03:15:12.184Z,7.30
2018-02-14T03:17:40.614Z,7.55
2018-02-14T03:20:09.112Z,6.90
2018-02-14T03:22:39.109Z,6.75
2018-02-14T03:25:07.522Z,7.10
2018-02-14T03:27:36.001Z,6.10
2018-02-14T03:30:04.632Z,7.50
2018-02-14T03:32:33.168Z,7.25
2018-02-14T03:35:01.644Z,6.57
2018-02-14T03:37:30.405Z,6.82
2018-02-14T03:39:58.858Z,7.05
2018-02-14T03:42:27.404Z,6.15
2018-02-14T03:44:56.777Z,6.18
2018-02-14T03:47:25.211Z,7.50
2018-02-14T03:49:53.663Z,6.90
2018-02-14T03:52:22.184Z,6.00
2018-02-14T03:54:50.754Z,6.85
2018-02-14T03:57:19.210Z,7.25
2018-02-14T03:59:47.883Z,6.82
2018-02-14T04:02:16.364Z,8.50
2018-02-14T04:04:44.808Z,6.55
2018-02-14T04:07:13.397Z,7.00
2018-02-14T04:09:41.841Z,5.80
2018-02-14T04:12:10.426Z,6.40
2018-02-14T04:14:39.637Z,7.12
2018-02-14T04:17:08.121Z,7.70
2018-02-14T04:19:36.569Z,6.75
2018-02-14T04:22:05.467Z,7.45
2018-02-14T04:24:34.130Z,7.75
2018-02-14T04:27:02.885Z,7.75
2018-02-14T04:29:32.320Z,8.00
2018-02-14T04:32:00.912Z,7.93
2018-02-14T04:34:30.242Z,8.73
2018-02-14T04:36:58.768Z,7.57
2018-02-14T04:39:27.407Z,6.47
2018-02-14T04:41:55.989Z,7.75
2018-02-14T04:44:24.874Z,7.65
2018-02-14T04:46:53.320Z,8.15
2018-02-14T04:49:21.831Z,7.30
2018-02-14T04:51:50.466Z,6.28
2018-02-14T04:54:18.898Z,7.32
2018-02-14T04:56:51.687Z,8.15
2018-02-14T04:59:21.473Z,6.80
2018-02-14T05:02:06.728Z,7.30
2018-02-14T05:04:35.257Z,6.53
2018-02-14T05:07:03.746Z,7.40
2018-02-14T05:09:32.189Z,6.35
2018-02-14T05:12:01.828Z,5.68
2018-02-14T05:14:30.300Z,6.80
2018-02-14T05:16:58.727Z,7.00
2018-02-14T05:19:27.376Z,7.28
2018-02-14T05:21:55.865Z,7.05
2018-02-14T05:24:24.295Z,7.25
2018-02-14T05:26:52.948Z,6.93
2018-02-14T05:29:21.375Z,7.65
2018-02-14T05:31:50.365Z,6.90
2018-02-14T05:34:19.007Z,6.82
2018-02-14T05:36:47.438Z,7.57
2018-02-14T05:39:15.868Z,7.00
2018-02-14T05:41:44.593Z,7.40
2018-02-14T05:44:13.028Z,7.28
2018-02-14T05:46:41.466Z,7.15
2018-02-14T05:49:10.068Z,7.03
2018-02-14T05:51:38.583Z,6.93
2018-02-14T05:54:07.109Z,7.28
2018-02-14T05:56:35.639Z,7.00
2018-02-14T05:59:04.114Z,7.40
2018-02-14T06:01:32.609Z,7.57
2018-02-14T06:04:01.535Z,8.13
2018-02-14T06:06:30.598Z,7.60
2018-02-14T06:08:59.166Z,7.93
2018-02-14T06:11:27.743Z,9.00
2018-02-14T06:13:56.197Z,8.77
2018-02-14T06:16:25.603Z,7.47
2018-02-14T06:18:54.210Z,8.65
2018-02-14T06:21:22.646Z,9.63
2018-02-14T06:23:51.104Z,9.27
2018-02-14T06:26:19.600Z,9.60
2018-02-14T06:28:48.027Z,10.15
2018-02-14T06:31:16.476Z,8.82
2018-02-14T06:33:44.941Z,9.40
2018-02-14T06:36:14.154Z,8.25
2018-02-14T06:38:42.602Z,10.15
2018-02-14T06:41:11.076Z,9.40
2018-02-14T06:43:39.633Z,8.50
2018-02-14T06:46:08.074Z,9.52
2018-02-14T06:48:36.550Z,8.75
2018-02-14T06:51:04.978Z,9.25
2018-02-14T06:53:34.466Z,9.82
2018-02-14T06:56:03.191Z,8.90
2018-02-14T06:58:31.877Z,9.00
2018-02-14T07:01:00.530Z,9.50
2018-02-14T07:03:29.173Z,9.55
2018-02-14T07:05:57.746Z,8.63
2018-02-14T07:08:26.172Z,8.27
2018-02-14T07:10:54.815Z,9.63
2018-02-14T07:13:25.605Z,8.85
2018-02-14T07:15:54.093Z,16.52
2018-02-14T07:18:22.989Z,13.02
2018-02-14T07:20:51.445Z,9.52
2018-02-14T07:23:25.494Z,9.48
2018-02-14T07:25:53.975Z,8.70
2018-02-14T07:28:22.409Z,8.40
2018-02-14T07:30:52.084Z,10.27
2018-02-14T07:33:20.507Z,9.43
2018-02-14T07:35:48.930Z,10.13
2018-02-14T07:38:17.432Z,9.38
2018-02-14T07:40:45.907Z,9.95
2018-02-14T07:43:15.273Z,8.35
2018-02-14T07:45:43.848Z,8.48
2018-02-14T07:48:12.700Z,7.68
2018-02-14T07:50:41.153Z,9.02
2018-02-14T07:53:09.643Z,9.60
2018-02-14T07:55:38.468Z,8.40
2018-02-14T07:58:07.766Z,8.85
2018-02-14T08:00:36.437Z,8.27
2018-02-14T08:03:05.624Z,8.10
2018-02-14T08:05:34.118Z,9.00
2018-02-14T08:08:02.705Z,8.43
2018-02-14T08:10:32.825Z,8.15
2018-02-14T08:13:01.915Z,8.85
2018-02-14T08:15:31.622Z,7.93
2018-02-14T08:18:00.126Z,6.90
2018-02-14T08:20:28.889Z,7.90
2018-02-14T08:22:57.520Z,7.35
2018-02-14T08:25:25.949Z,7.50
2018-02-14T08:27:55.252Z,7.05
2018-02-14T08:30:23.868Z,8.45
2018-02-14T08:32:52.259Z,7.22
2018-02-14T08:35:20.681Z,7.50
2018-02-14T08:37:49.276Z,6.37
2018-02-14T08:40:17.757Z,7.47
2018-02-14T08:42:46.165Z,6.68
2018-02-14T08:45:15.129Z,6.22
2018-02-14T08:47:43.565Z,6.82
2018-02-14T08:50:12.301Z,5.95
2018-02-14T08:52:41.240Z,6.85
2018-02-14T08:55:09.778Z,6.80
2018-02-14T08:57:38.359Z,6.70
2018-02-14T09:00:06.857Z,6.07
2018-02-14T09:02:35.445Z,6.70
2018-02-14T09:05:04.123Z,7.72
2018-02-14T09:07:33.010Z,6.50
2018-02-14T09:10:01.821Z,7.25
2018-02-14T09:12:30.279Z,7.55
2018-02-14T09:14:58.863Z,7.62
2018-02-14T09:17:27.323Z,7.05
2018-02-14T09:19:55.756Z,7.43
2018-02-14T09:22:25.149Z,9.55
2018-02-14T09:24:53.620Z,9.25
2018-02-14T09:27:22.061Z,10.15
2018-02-14T09:29:50.806Z,9.15
2018-02-14T09:32:19.261Z,9.43
2018-02-14T09:34:47.714Z,9.40
2018-02-14T09:37:16.220Z,9.60
2018-02-14T09:39:44.699Z,9.65
2018-02-14T09:42:13.253Z,8.10
2018-02-14T09:44:41.971Z,8.20
2018-02-14T09:47:10.431Z,9.98
2018-02-14T09:49:38.987Z,8.35
2018-02-14T09:52:07.742Z,9.35
2018-02-14T09:54:36.301Z,9.10
2018-02-14T09:57:04.818Z,9.25
2018-02-14T09:59:33.807Z,9.23
2018-02-14T10:02:02.417Z,9.18
2018-02-14T10:04:31.878Z,9.52
2018-02-14T10:07:01.180Z,7.80
2018-02-14T10:09:30.670Z,7.85
2018-02-14T10:11:59.111Z,8.70
2018-02-14T10:14:27.914Z,7.93
2018-02-14T10:16:56.337Z,10.20
2018-02-14T10:19:24.786Z,7.82
2018-02-14T10:21:53.311Z,8.05
2018-02-14T10:24:21.735Z,8.38
2018-02-14T10:26:50.183Z,8.00
2018-02-14T10:29:19.367Z,7.30
2018-02-14T10:31:47.792Z,7.03
2018-02-14T10:34:16.196Z,7.28
2018-02-14T10:36:45.023Z,7.43
2018-02-14T10:39:13.491Z,7.80
2018-02-14T10:41:41.903Z,8.60
2018-02-14T10:44:10.358Z,8.25
2018-02-14T10:46:39.093Z,6.57
2018-02-14T10:49:07.534Z,6.85
2018-02-14T10:51:36.178Z,7.70
2018-02-14T10:54:04.651Z,8.77
2018-02-14T10:56:33.344Z,6.95
2018-02-14T10:59:01.887Z,8.45
2018-02-14T11:01:36.898Z,7.10
2018-02-14T11:04:11.303Z,6.62
2018-02-14T11:06:39.896Z,6.15
2018-02-14T11:09:08.527Z,6.28
2018-02-14T11:11:37.026Z,7.22
2018-02-14T11:14:05.460Z,5.50
2018-02-14T11:16:34.243Z,6.78
2018-02-14T11:19:03.124Z,6.25
2018-02-14T11:21:33.298Z,6.85
2018-02-14T11:24:02.394Z,6.57
2018-02-14T11:26:31.458Z,6.00
2018-02-14T11:28:59.976Z,7.30
2018-02-14T11:31:28.502Z,7.72
2018-02-14T11:33:57.130Z,7.85
2018-02-14T11:36:25.569Z,7.53
2018-02-14T11:38:54.028Z,6.35
2018-02-14T11:41:22.682Z,7.20
2018-02-14T11:43:51.088Z,7.32
2018-02-14T11:46:19.507Z,7.15
2018-02-14T11:48:48.061Z,7.45
2018-02-14T11:51:16.677Z,6.70
2018-02-14T11:53:45.115Z,6.82
2018-02-14T11:56:13.664Z,8.23
2018-02-14T11:58:42.182Z,6.45
2018-02-14T12:01:10.641Z,6.97
2018-02-14T12:03:41.341Z,7.95
2018-02-14T12:06:09.898Z,6.60
2018-02-14T12:08:38.490Z,8.65
2018-02-14T12:11:06.993Z,7.35
2018-02-14T12:13:35.467Z,8.50
2018-02-14T12:16:04.090Z,9.07
2018-02-14T12:18:33.452Z,9.65
2018-02-14T12:21:02.101Z,9.02
2018-02-14T12:23:31.059Z,9.60
2018-02-14T12:26:01.614Z,8.00
2018-02-14T12:28:30.076Z,9.18
2018-02-14T12:30:58.733Z,9.35
2018-02-14T12:33:27.749Z,9.98
2018-02-14T12:35:56.165Z,15.57
2018-02-14T12:38:24.574Z,8.52
2018-02-14T12:40:53.088Z,8.70
2018-02-14T12:43:21.491Z,8.43
2018-02-14T12:45:49.945Z,9.48
2018-02-14T12:48:19.789Z,6.35
2018-02-14T12:50:48.237Z,9.30
2018-02-14T12:53:16.651Z,8.68
2018-02-14T12:55:45.281Z,6.82
2018-02-14T12:58:13.684Z,8.73
2018-02-14T13:00:42.096Z,8.77
2018-02-14T13:03:11.740Z,10.10
2018-02-14T13:05:40.171Z,9.85
2018-02-14T13:08:08.644Z,9.98
2018-02-14T13:10:38.171Z,8.05
2018-02-14T13:13:07.175Z,8.98
2018-02-14T13:15:35.927Z,9.82
2018-02-14T13:18:05.854Z,10.05
2018-02-14T13:20:34.376Z,9.20
2018-02-14T13:23:02.911Z,9.48
2018-02-14T13:25:32.211Z,10.00
2018-02-14T13:28:00.795Z,9.68
2018-02-14T13:30:29.222Z,9.35
2018-02-14T13:32:57.720Z,10.32
2018-02-14T13:35:26.137Z,9.73
2018-02-14T13:37:54.581Z,10.15
2018-02-14T13:40:23.087Z,9.80
2018-02-14T13:42:51.529Z,9.50
2018-02-14T13:45:19.934Z,10.05
2018-02-14T13:47:49.493Z,9.13
2018-02-14T13:50:18.003Z,10.40
2018-02-14T13:52:46.415Z,8.30
2018-02-14T13:55:14.924Z,9.30
2018-02-14T13:57:43.378Z,10.40
2018-02-14T14:00:11.865Z,10.73
2018-02-14T14:02:40.411Z,10.48
2018-02-14T14:05:09.028Z,10.13
2018-02-14T14:07:37.607Z,10.15
2018-02-14T14:10:06.502Z,10.85
2018-02-14T14:12:34.983Z,10.90
2018-02-14T14:15:03.667Z,11.00
2018-02-14T14:17:32.168Z,9.10
2018-02-14T14:20:00.631Z,10.48
2018-02-14T14:22:29.350Z,10.50
2018-02-14T14:24:58.098Z,9.88
2018-02-14T14:27:26.513Z,11.05
2018-02-14T14:29:55.175Z,10.20
2018-02-14T14:32:23.826Z,9.88
2018-02-14T14:34:52.244Z,11.10
2018-02-14T14:37:20.713Z,11.65
2018-02-14T14:39:49.535Z,11.77
2018-02-14T14:42:18.321Z,12.13
2018-02-14T14:44:46.751Z,9.88
2018-02-14T14:47:17.017Z,10.30
2018-02-14T14:49:45.425Z,11.70
2018-02-14T14:52:13.844Z,10.60
2018-02-14T14:54:43.732Z,9.30
2018-02-14T14:57:12.155Z,11.20
2018-02-14T14:59:40.617Z,11.60
2018-02-14T15:02:09.182Z,12.30
2018-02-14T15:04:37.667Z,11.40
2018-02-14T15:07:06.183Z,11.02
2018-02-14T15:09:35.690Z,11.65
2018-02-14T15:12:04.621Z,11.55
2018-02-14T15:14:33.198Z,12.63
2018-02-14T15:17:01.790Z,14.00
2018-02-14T15:19:30.243Z,13.40
2018-02-14T15:21:58.671Z,13.25
2018-02-14T15:24:27.127Z,16.08
2018-02-14T15:26:55.548Z,16.85
2018-02-14T15:29:23.981Z,16.70
2018-02-14T15:31:52.865Z,16.37
2018-02-14T15:34:21.296Z,15.98
2018-02-14T15:36:49.713Z,13.30
2018-02-14T15:39:18.337Z,12.93
2018-02-14T15:41:46.814Z,12.80
2018-02-14T15:44:15.786Z,11.90
2018-02-14T15:46:45.993Z,12.30
2018-02-14T15:49:14.621Z,12.40
2018-02-14T15:51:43.132Z,12.52
2018-02-14T15:54:11.928Z,12.55
2018-02-14T15:56:40.362Z,12.18
2018-02-14T15:59:08.819Z,12.57
2018-02-14T16:01:37.605Z,11.50
2018-02-14T16:04:06.047Z,11.80
2018-02-14T16:06:34.473Z,11.80
2018-02-14T16:09:03.011Z,10.65
2018-02-14T16:11:31.516Z,9.93
2018-02-14T16:14:00.117Z,9.15
2018-02-14T16:16:30.218Z,12.30
2018-02-14T16:18:58.926Z,10.85
2018-02-14T16:21:27.407Z,12.45
2018-02-14T16:23:56.398Z,12.60
2018-02-14T16:26:24.985Z,12.52
2018-02-14T16:28:53.497Z,12.15
2018-02-14T16:31:23.917Z,11.85
2018-02-14T16:33:52.763Z,11.73
2018-02-14T16:36:21.372Z,11.90
2018-02-14T16:38:51.753Z,11.60
2018-02-14T16:41:21.001Z,11.95
2018-02-14T16:43:49.649Z,12.70
2018-02-14T16:46:24.953Z,12.90
2018-02-14T16:48:54.217Z,12.88
2018-02-14T16:51:24.001Z,12.25
2018-02-14T16:53:52.877Z,10.52
2018-02-14T16:56:21.358Z,11.23
2018-02-14T16:58:49.844Z,11.85
2018-02-14T17:01:19.499Z,11.75
2018-02-14T17:03:48.241Z,11.30
2018-02-14T17:06:17.491Z,11.73
2018-02-14T17:08:46.145Z,11.75
2018-02-14T17:11:15.522Z,13.77
2018-02-14T17:13:44.029Z,12.15
2018-02-14T17:16:12.609Z,12.18
2018-02-14T17:18:41.030Z,11.70
2018-02-14T17:21:09.503Z,13.73
2018-02-14T17:23:37.996Z,12.23
2018-02-14T17:26:06.422Z,11.90
2018-02-14T17:28:34.917Z,12.07
2018-02-14T17:31:04.013Z,13.05
2018-02-14T17:33:32.428Z,14.32
2018-02-14T17:36:00.862Z,12.60
2018-02-14T17:38:29.877Z,12.63
2018-02-14T17:40:58.357Z,14.27
2018-02-14T17:43:26.950Z,13.70
2018-02-14T17:45:55.987Z,13.80
2018-02-14T17:48:24.415Z,11.93
2018-02-14T17:50:53.696Z,11.45
2018-02-14T17:53:22.299Z,13.40
2018-02-14T17:55:50.709Z,11.05
2018-02-14T17:58:19.134Z,11.90
2018-02-14T18:00:48.582Z,11.27
2018-02-14T18:03:17.032Z,13.57
2018-02-14T18:05:45.495Z,11.82
2018-02-14T18:08:14.050Z,12.60
2018-02-14T18:10:43.088Z,12.50
2018-02-14T18:13:11.674Z,12.95
2018-02-14T18:15:40.662Z,11.80
2018-02-14T18:18:09.318Z,12.20
2018-02-14T18:20:38.431Z,11.73
2018-02-14T18:23:08.287Z,11.93
2018-02-14T18:25:36.936Z,11.32
2018-02-14T18:28:05.493Z,11.10
2018-02-14T18:30:34.267Z,12.13
2018-02-14T18:33:02.769Z,11.55
2018-02-14T18:35:32.619Z,11.68
2018-02-14T18:38:01.720Z,11.27
2018-02-14T18:40:30.154Z,13.88
2018-02-14T18:42:58.562Z,12.43
2018-02-14T18:45:27.828Z,9.77
2018-02-14T18:47:56.259Z,11.20
2018-02-14T18:50:24.690Z,11.40
2018-02-14T18:52:53.174Z,12.23
2018-02-14T18:55:21.659Z,11.18
2018-02-14T18:57:50.174Z,9.82
2018-02-14T19:00:18.710Z,10.80
2018-02-14T19:02:47.198Z,12.18
2018-02-14T19:05:15.771Z,12.52
2018-02-14T19:07:44.782Z,12.30
2018-02-14T19:10:13.268Z,11.75
2018-02-14T19:12:41.722Z,16.20
2018-02-14T19:15:11.040Z,16.10
2018-02-14T19:17:39.582Z,12.30
2018-02-14T19:20:08.483Z,15.52
2018-02-14T19:22:38.074Z,11.82
2018-02-14T19:25:06.524Z,12.32
2018-02-14T19:27:35.059Z,13.23
2018-02-14T19:30:05.206Z,14.70
2018-02-14T19:32:33.753Z,11.52
2018-02-14T19:35:03.425Z,10.05
2018-02-14T19:37:32.971Z,8.90
2018-02-14T19:40:01.429Z,13.55
2018-02-14T19:42:29.892Z,12.77
2018-02-14T19:44:59.434Z,13.55
2018-02-14T19:47:28.273Z,11.95
2018-02-14T19:49:56.724Z,11.40
2018-02-14T19:52:26.340Z,12.95
2018-02-14T19:54:54.876Z,12.60
2018-02-14T19:57:24.377Z,12.75
2018-02-14T19:59:53.827Z,12.18
2018-02-14T20:02:22.384Z,14.07
2018-02-14T20:04:50.957Z,10.57
2018-02-14T20:07:19.557Z,10.50
2018-02-14T20:09:48.014Z,12.90
2018-02-14T20:12:16.567Z,12.30
2018-02-14T20:14:45.680Z,12.05
2018-02-14T20:17:14.294Z,12.43
2018-02-14T20:19:43.034Z,13.40
2018-02-14T20:22:12.135Z,12.80
2018-02-14T20:24:40.773Z,11.15
2018-02-14T20:27:09.375Z,13.68
2018-02-14T20:29:39.899Z,12.20
2018-02-14T20:32:08.651Z,12.52
2018-02-14T20:34:37.959Z,12.48
2018-02-14T20:37:07.493Z,12.68
2018-02-14T20:39:36.072Z,13.38
2018-02-14T20:42:06.574Z,12.20
2018-02-14T20:44:35.280Z,12.18
2018-02-14T20:47:04.009Z,12.73
2018-02-14T20:49:32.662Z,12.88
2018-02-14T20:52:03.711Z,13.68
2018-02-14T20:54:32.615Z,13.57
2018-02-14T20:57:01.094Z,13.15
2018-02-14T20:59:29.598Z,14.48
2018-02-14T21:01:58.133Z,12.48
2018-02-14T21:04:26.665Z,10.77
2018-02-14T21:06:55.759Z,10.90
2018-02-14T21:09:24.235Z,11.98
2018-02-14T21:11:52.702Z,11.90
2018-02-14T21:14:22.018Z,8.98
2018-02-14T21:16:50.655Z,10.63
2018-02-14T21:19:19.118Z,10.85
2018-02-14T21:21:47.613Z,10.95
2018-02-14T21:24:16.067Z,10.00
2018-02-14T21:26:45.339Z,10.63
2018-02-14T21:29:14.336Z,11.73
2018-02-14T21:31:42.817Z,10.25
2018-02-14T21:34:11.637Z,12.13
2018-02-14T21:36:40.732Z,11.02
2018-02-14T21:39:09.468Z,11.12
2018-02-14T21:41:38.175Z,11.40
2018-02-14T21:44:07.165Z,9.73
2018-02-14T21:46:35.645Z,11.85
2018-02-14T21:49:04.231Z,11.52
2018-02-14T21:51:34.403Z,10.10
2018-02-14T21:54:02.933Z,13.05
2018-02-14T21:56:31.402Z,13.38
2018-02-14T21:59:00.103Z,10.45
2018-02-14T22:01:28.610Z,11.73
2018-02-14T22:03:57.058Z,13.82
2018-02-14T22:06:25.566Z,13.57
2018-02-14T22:08:54.017Z,10.60
2018-02-14T22:11:22.481Z,14.40
2018-02-14T22:13:50.985Z,11.85
2018-02-14T22:16:19.462Z,11.40
2018-02-14T22:18:47.915Z,11.05
2018-02-14T22:21:17.025Z,10.65
2018-02-14T22:23:45.467Z,10.95
2018-02-14T22:26:13.962Z,10.73
2018-02-14T22:28:44.526Z,11.52
2018-02-14T22:31:12.985Z,9.13
2018-02-14T22:33:41.600Z,9.70
2018-02-14T22:36:10.637Z,11.52
2018-02-14T22:38:39.182Z,11.38
2018-02-14T22:41:07.692Z,10.48
2018-02-14T22:43:37.437Z,13.77
2018-02-14T22:46:05.904Z,13.00
2018-02-14T22:48:34.455Z,7.72
2018-02-14T22:51:03.511Z,10.48
2018-02-14T22:53:31.931Z,12.88
2018-02-14T22:56:00.401Z,10.52
2018-02-14T22:58:29.088Z,11.50
2018-02-14T23:00:57.556Z,11.73
2018-02-14T23:03:26.004Z,10.82
2018-02-14T23:05:54.617Z,9.23
2018-02-14T23:08:23.083Z,11.02
2018-02-14T23:10:51.518Z,10.80
2018-02-14T23:13:20.361Z,11.00
2018-02-14T23:15:48.965Z,10.60
2018-02-14T23:18:17.429Z,9.93
2018-02-14T23:20:45.972Z,10.50
2018-02-14T23:23:14.438Z,10.32
2018-02-14T23:25:42.918Z,11.68
2018-02-14T23:28:11.701Z,11.43
2018-02-14T23:30:40.321Z,9.10
2018-02-14T23:33:08.925Z,9.07
2018-02-14T23:35:37.470Z,7.97
2018-02-14T23:38:06.188Z,10.02
2018-02-14T23:40:34.832Z,11.15
2018-02-14T23:43:04.158Z,9.02
2018-02-14T23:45:32.687Z,13.07
2018-02-14T23:48:01.122Z,11.55
2018-02-14T23:50:29.680Z,10.15
2018-02-14T23:52:58.123Z,11.32
2018-02-14T23:55:26.736Z,11.12
2018-02-14T23:57:55.261Z,13.48
